sensor_id;sensor_type;location;lat;lon;timestamp;pressure;altitude;pressure_sealevel;temperature;humidity
61014;BME280;46899;47.542;19.082;2023-02-04T00:03:02;100112.09;;;4.14;100.00
61014;BME280;46899;47.542;19.082;2023-02-04T00:06:05;100117.25;;;4.16;100.00
61014;BME280;46899;47.542;19.082;2023-02-04T00:09:07;100123.25;;;4.17;100.00
61014;BME280;46899;47.542;19.082;2023-02-04T00:12:10;100131.81;;;4.15;100.00
61014;BME280;46899;47.542;19.082;2023-02-04T00:15:13;100122.31;;;4.21;100.00
61014;BME280;46899;47.542;19.082;2023-02-04T00:18:15;100126.56;;;4.25;100.00
61014;BME280;46899;47.542;19.082;2023-02-04T00:21:18;100133.41;;;4.26;100.00
61014;BME280;46899;47.542;19.082;2023-02-04T00:24:20;100123.78;;;4.38;100.00
61014;BME280;46899;47.542;19.082;2023-02-04T00:27:23;100131.56;;;4.35;100.00
61014;BME280;46899;47.542;19.082;2023-02-04T00:30:25;100126.53;;;4.28;100.00
61014;BME280;46899;47.542;19.082;2023-02-04T00:33:28;100127.34;;;4.30;100.00
61014;BME280;46899;47.542;19.082;2023-02-04T00:36:31;100122.28;;;4.22;100.00
61014;BME280;46899;47.542;19.082;2023-02-04T00:39:33;100107.84;;;4.10;100.00
61014;BME280;46899;47.542;19.082;2023-02-04T00:42:36;100100.19;;;4.06;100.00
61014;BME280;46899;47.542;19.082;2023-02-04T00:45:38;100090.00;;;4.00;100.00
61014;BME280;46899;47.542;19.082;2023-02-04T00:48:41;100084.97;;;3.91;100.00
61014;BME280;46899;47.542;19.082;2023-02-04T00:51:44;100078.19;;;3.84;100.00
61014;BME280;46899;47.542;19.082;2023-02-04T00:54:48;100062.56;;;3.96;100.00
61014;BME280;46899;47.542;19.082;2023-02-04T00:57:50;100058.91;;;4.13;100.00
61014;BME280;46899;47.542;19.082;2023-02-04T01:00:53;100053.59;;;4.24;100.00
61014;BME280;46899;47.542;19.082;2023-02-04T01:03:56;100057.72;;;4.37;100.00
61014;BME280;46899;47.542;19.082;2023-02-04T01:06:58;100054.13;;;4.46;100.00
61014;BME280;46899;47.542;19.082;2023-02-04T01:10:01;100045.59;;;4.44;100.00
61014;BME280;46899;47.542;19.082;2023-02-04T01:13:03;100043.09;;;4.39;100.00
61014;BME280;46899;47.542;19.082;2023-02-04T01:16:06;100051.63;;;4.43;100.00
61014;BME280;46899;47.542;19.082;2023-02-04T01:19:09;100045.56;;;4.47;100.00
61014;BME280;46899;47.542;19.082;2023-02-04T01:22:11;100050.00;;;4.37;100.00
61014;BME280;46899;47.542;19.082;2023-02-04T01:25:14;100050.69;;;4.47;100.00
61014;BME280;46899;47.542;19.082;2023-02-04T01:28:17;100051.50;;;4.52;100.00
61014;BME280;46899;47.542;19.082;2023-02-04T01:31:20;100060.03;;;4.54;100.00
61014;BME280;46899;47.542;19.082;2023-02-04T01:34:23;100053.25;;;4.48;100.00
61014;BME280;46899;47.542;19.082;2023-02-04T01:37:27;100043.81;;;4.49;100.00
61014;BME280;46899;47.542;19.082;2023-02-04T01:40:29;100036.00;;;4.53;100.00
61014;BME280;46899;47.542;19.082;2023-02-04T01:43:33;100022.25;;;4.53;100.00
61014;BME280;46899;47.542;19.082;2023-02-04T01:46:35;100033.31;;;4.61;100.00
61014;BME280;46899;47.542;19.082;2023-02-04T01:49:38;100036.50;;;4.73;100.00
61014;BME280;46899;47.542;19.082;2023-02-04T01:52:41;100023.50;;;4.81;100.00
61014;BME280;46899;47.542;19.082;2023-02-04T01:55:45;100024.41;;;4.80;100.00
61014;BME280;46899;47.542;19.082;2023-02-04T01:58:48;100034.72;;;4.80;100.00
61014;BME280;46899;47.542;19.082;2023-02-04T02:01:51;100041.59;;;4.79;100.00
61014;BME280;46899;47.542;19.082;2023-02-04T02:04:54;100031.22;;;4.82;100.00
61014;BME280;46899;47.542;19.082;2023-02-04T02:07:59;100038.94;;;4.84;100.00
61014;BME280;46899;47.542;19.082;2023-02-04T02:11:03;100043.28;;;4.80;100.00
61014;BME280;46899;47.542;19.082;2023-02-04T02:14:06;100047.63;;;4.77;100.00
61014;BME280;46899;47.542;19.082;2023-02-04T02:17:09;100057.09;;;4.78;100.00
61014;BME280;46899;47.542;19.082;2023-02-04T02:20:14;100049.34;;;4.78;100.00
61014;BME280;46899;47.542;19.082;2023-02-04T02:26:38;100061.50;;;4.70;100.00
61014;BME280;46899;47.542;19.082;2023-02-04T02:29:41;100071.00;;;4.66;100.00
61014;BME280;46899;47.542;19.082;2023-02-04T02:32:44;100059.84;;;4.66;100.00
61014;BME280;46899;47.542;19.082;2023-02-04T02:35:48;100047.75;;;4.69;100.00
61014;BME280;46899;47.542;19.082;2023-02-04T02:38:51;100057.34;;;4.61;100.00
61014;BME280;46899;47.542;19.082;2023-02-04T02:41:54;100051.41;;;4.55;100.00
61014;BME280;46899;47.542;19.082;2023-02-04T02:44:57;100051.56;;;4.47;100.00
61014;BME280;46899;47.542;19.082;2023-02-04T02:48:01;100049.84;;;4.46;100.00
61014;BME280;46899;47.542;19.082;2023-02-04T02:51:06;100033.47;;;4.52;100.00
61014;BME280;46899;47.542;19.082;2023-02-04T02:54:17;100023.16;;;4.52;100.00
61014;BME280;46899;47.542;19.082;2023-02-04T02:57:21;100022.22;;;4.56;100.00
61014;BME280;46899;47.542;19.082;2023-02-04T03:00:27;100010.25;;;4.53;100.00
61014;BME280;46899;47.542;19.082;2023-02-04T03:03:35;100003.37;;;4.52;100.00
61014;BME280;46899;47.542;19.082;2023-02-04T03:06:39;100014.50;;;4.56;100.00
61014;BME280;46899;47.542;19.082;2023-02-04T03:09:41;100036.75;;;4.60;100.00
61014;BME280;46899;47.542;19.082;2023-02-04T03:12:44;100026.44;;;4.60;100.00
61014;BME280;46899;47.542;19.082;2023-02-04T03:15:48;100047.13;;;4.57;100.00
61014;BME280;46899;47.542;19.082;2023-02-04T03:18:50;100024.84;;;4.54;100.00
61014;BME280;46899;47.542;19.082;2023-02-04T03:21:53;100030.06;;;4.50;100.00
61014;BME280;46899;47.542;19.082;2023-02-04T03:24:57;100032.63;;;4.50;100.00
61014;BME280;46899;47.542;19.082;2023-02-04T03:27:59;100023.09;;;4.56;100.00
61014;BME280;46899;47.542;19.082;2023-02-04T03:31:03;100025.66;;;4.56;100.00
61014;BME280;46899;47.542;19.082;2023-02-04T03:34:05;100026.59;;;4.51;100.00
61014;BME280;46899;47.542;19.082;2023-02-04T03:37:08;100014.53;;;4.53;100.00
61014;BME280;46899;47.542;19.082;2023-02-04T03:40:11;100007.63;;;4.55;100.00
61014;BME280;46899;47.542;19.082;2023-02-04T03:43:13;99994.78;;;4.53;100.00
61014;BME280;46899;47.542;19.082;2023-02-04T03:46:16;100008.59;;;4.49;100.00
61014;BME280;46899;47.542;19.082;2023-02-04T03:49:18;100004.31;;;4.48;100.00
61014;BME280;46899;47.542;19.082;2023-02-04T03:52:21;100009.38;;;4.54;100.00
61014;BME280;46899;47.542;19.082;2023-02-04T03:55:23;99989.72;;;4.49;100.00
61014;BME280;46899;47.542;19.082;2023-02-04T03:58:27;100000.88;;;4.48;100.00
61014;BME280;46899;47.542;19.082;2023-02-04T04:01:30;100001.75;;;4.47;100.00
61014;BME280;46899;47.542;19.082;2023-02-04T04:04:33;100000.94;;;4.45;100.00
61014;BME280;46899;47.542;19.082;2023-02-04T04:07:35;100004.34;;;4.45;100.00
61014;BME280;46899;47.542;19.082;2023-02-04T04:10:38;100010.19;;;4.55;100.00
61014;BME280;46899;47.542;19.082;2023-02-04T04:13:43;100023.94;;;4.55;100.00
61014;BME280;46899;47.542;19.082;2023-02-04T04:16:46;100017.94;;;4.55;100.00
61014;BME280;46899;47.542;19.082;2023-02-04T04:19:48;100007.59;;;4.58;100.00
61014;BME280;46899;47.542;19.082;2023-02-04T04:22:51;100010.97;;;4.60;100.00
61014;BME280;46899;47.542;19.082;2023-02-04T04:25:53;100010.97;;;4.60;100.00
61014;BME280;46899;47.542;19.082;2023-02-04T04:28:56;100014.38;;;4.62;100.00
61014;BME280;46899;47.542;19.082;2023-02-04T04:31:59;100007.50;;;4.62;100.00
61014;BME280;46899;47.542;19.082;2023-02-04T04:35:02;100005.75;;;4.66;100.00
61014;BME280;46899;47.542;19.082;2023-02-04T04:38:04;99992.06;;;4.62;100.00
61014;BME280;46899;47.542;19.082;2023-02-04T04:41:07;99988.63;;;4.62;100.00
61014;BME280;46899;47.542;19.082;2023-02-04T04:44:09;99992.03;;;4.64;100.00
61014;BME280;46899;47.542;19.082;2023-02-04T04:47:12;99991.06;;;4.69;100.00
61014;BME280;46899;47.542;19.082;2023-02-04T04:50:15;100003.09;;;4.70;100.00
61014;BME280;46899;47.542;19.082;2023-02-04T04:53:17;99996.97;;;4.76;100.00
61014;BME280;46899;47.542;19.082;2023-02-04T04:56:20;100015.03;;;4.74;100.00
61014;BME280;46899;47.542;19.082;2023-02-04T04:59:23;99995.25;;;4.78;100.00
61014;BME280;46899;47.542;19.082;2023-02-04T05:02:25;99999.56;;;4.74;100.00
61014;BME280;46899;47.542;19.082;2023-02-04T05:05:28;99990.12;;;4.75;100.00
61014;BME280;46899;47.542;19.082;2023-02-04T05:08:31;99996.97;;;4.76;100.00
61014;BME280;46899;47.542;19.082;2023-02-04T05:11:35;99985.72;;;4.81;100.00
61014;BME280;46899;47.542;19.082;2023-02-04T05:14:38;99988.25;;;4.83;100.00
61014;BME280;46899;47.542;19.082;2023-02-04T05:17:40;99991.69;;;4.83;100.00
61014;BME280;46899;47.542;19.082;2023-02-04T05:20:43;99980.44;;;4.87;100.00
61014;BME280;46899;47.542;19.082;2023-02-04T05:23:45;99986.56;;;4.82;100.00
61014;BME280;46899;47.542;19.082;2023-02-04T05:26:48;99972.03;;;4.78;100.00
61014;BME280;46899;47.542;19.082;2023-02-04T05:29:51;99959.16;;;4.78;100.00
61014;BME280;46899;47.542;19.082;2023-02-04T05:32:53;99959.06;;;4.81;100.00
61014;BME280;46899;47.542;19.082;2023-02-04T05:35:56;99953.94;;;4.81;100.00
61014;BME280;46899;47.542;19.082;2023-02-04T05:38:58;99959.03;;;4.84;100.00
61014;BME280;46899;47.542;19.082;2023-02-04T05:42:01;99953.16;;;4.77;100.00
61014;BME280;46899;47.542;19.082;2023-02-04T05:45:09;99955.97;;;4.64;100.00
61014;BME280;46899;47.542;19.082;2023-02-04T05:48:14;99958.59;;;4.59;100.00
61014;BME280;46899;47.542;19.082;2023-02-04T05:51:17;99985.28;;;4.57;100.00
61014;BME280;46899;47.542;19.082;2023-02-04T05:54:20;99974.91;;;4.61;100.00
61014;BME280;46899;47.542;19.082;2023-02-04T05:57:22;99970.56;;;4.63;100.00
61014;BME280;46899;47.542;19.082;2023-02-04T06:00:25;99966.31;;;4.59;100.00
61014;BME280;46899;47.542;19.082;2023-02-04T06:03:28;99998.22;;;4.52;100.00
61014;BME280;46899;47.542;19.082;2023-02-04T06:06:30;100016.44;;;4.42;100.00
61014;BME280;46899;47.542;19.082;2023-02-04T06:09:33;100000.31;;;4.31;100.00
61014;BME280;46899;47.542;19.082;2023-02-04T06:12:35;100028.81;;;4.19;100.00
61014;BME280;46899;47.542;19.082;2023-02-04T06:15:38;100037.44;;;4.14;100.00
61014;BME280;46899;47.542;19.082;2023-02-04T06:18:41;100079.56;;;4.09;100.00
61014;BME280;46899;47.542;19.082;2023-02-04T06:21:44;100062.47;;;4.05;100.00
61014;BME280;46899;47.542;19.082;2023-02-04T06:24:46;100077.94;;;4.02;100.00
61014;BME280;46899;47.542;19.082;2023-02-04T06:27:49;100090.94;;;3.91;100.00
61014;BME280;46899;47.542;19.082;2023-02-04T06:30:51;100098.75;;;3.85;100.00
61014;BME280;46899;47.542;19.082;2023-02-04T06:33:54;100091.16;;;3.73;100.00
61014;BME280;46899;47.542;19.082;2023-02-04T06:36:56;100109.22;;;3.72;100.00
61014;BME280;46899;47.542;19.082;2023-02-04T06:39:59;100111.84;;;3.67;100.00
61014;BME280;46899;47.542;19.082;2023-02-04T06:43:02;100125.53;;;3.66;100.00
61014;BME280;46899;47.542;19.082;2023-02-04T06:46:06;100134.97;;;3.67;100.00
61014;BME280;46899;47.542;19.082;2023-02-04T06:49:08;100142.72;;;3.64;100.00
61014;BME280;46899;47.542;19.082;2023-02-04T06:52:11;100152.16;;;3.64;100.00
61014;BME280;46899;47.542;19.082;2023-02-04T06:55:14;100150.41;;;3.66;100.00
61014;BME280;46899;47.542;19.082;2023-02-04T06:58:17;100141.84;;;3.65;100.00
61014;BME280;46899;47.542;19.082;2023-02-04T07:01:19;100138.44;;;3.65;99.49
61014;BME280;46899;47.542;19.082;2023-02-04T07:04:22;100125.59;;;3.62;99.28
61014;BME280;46899;47.542;19.082;2023-02-04T07:07:24;100150.44;;;3.64;100.00
61014;BME280;46899;47.542;19.082;2023-02-04T07:10:27;100157.25;;;3.68;98.85
61014;BME280;46899;47.542;19.082;2023-02-04T07:13:30;100157.25;;;3.70;99.03
61014;BME280;46899;47.542;19.082;2023-02-04T07:16:33;100172.63;;;3.73;98.10
61014;BME280;46899;47.542;19.082;2023-02-04T07:19:35;100196.72;;;3.67;96.55
61014;BME280;46899;47.542;19.082;2023-02-04T07:22:38;100189.87;;;3.63;93.60
61014;BME280;46899;47.542;19.082;2023-02-04T07:25:41;100174.50;;;3.59;94.97
61014;BME280;46899;47.542;19.082;2023-02-04T07:28:45;100178.00;;;3.50;93.98
61014;BME280;46899;47.542;19.082;2023-02-04T07:31:48;100180.66;;;3.39;93.76
61014;BME280;46899;47.542;19.082;2023-02-04T07:34:53;100187.62;;;3.31;94.93
61014;BME280;46899;47.542;19.082;2023-02-04T07:37:55;100191.09;;;3.24;94.43
61014;BME280;46899;47.542;19.082;2023-02-04T07:40:58;100198.81;;;3.21;94.08
61014;BME280;46899;47.542;19.082;2023-02-04T07:44:00;100198.72;;;3.35;91.69
61014;BME280;46899;47.542;19.082;2023-02-04T07:47:03;100225.38;;;4.14;87.20
61014;BME280;46899;47.542;19.082;2023-02-04T07:50:07;100211.78;;;4.05;84.29
61014;BME280;46899;47.542;19.082;2023-02-04T07:53:10;100202.66;;;3.74;86.46
61014;BME280;46899;47.542;19.082;2023-02-04T07:56:13;100218.78;;;3.89;84.69
61014;BME280;46899;47.542;19.082;2023-02-04T07:59:16;100205.12;;;4.56;81.65
61014;BME280;46899;47.542;19.082;2023-02-04T08:02:18;100220.03;;;4.97;78.47
61014;BME280;46899;47.542;19.082;2023-02-04T08:05:21;100214.38;;;4.70;80.40
61014;BME280;46899;47.542;19.082;2023-02-04T08:08:23;100220.63;;;4.54;81.09
61014;BME280;46899;47.542;19.082;2023-02-04T08:11:26;100239.41;;;4.61;80.51
61014;BME280;46899;47.542;19.082;2023-02-04T08:14:28;100252.31;;;4.59;80.15
61014;BME280;46899;47.542;19.082;2023-02-04T08:17:31;100238.06;;;6.03;72.35
61014;BME280;46899;47.542;19.082;2023-02-04T08:20:33;100252.97;;;5.88;72.48
61014;BME280;46899;47.542;19.082;2023-02-04T08:23:36;100248.78;;;6.27;71.09
61014;BME280;46899;47.542;19.082;2023-02-04T08:26:43;100282.47;;;5.72;71.77
61014;BME280;46899;47.542;19.082;2023-02-04T08:29:46;100285.47;;;5.46;73.61
61014;BME280;46899;47.542;19.082;2023-02-04T08:32:48;100292.38;;;4.83;74.79
61014;BME280;46899;47.542;19.082;2023-02-04T08:35:51;100303.25;;;4.38;76.34
61014;BME280;46899;47.542;19.082;2023-02-04T08:38:53;100312.97;;;4.08;79.78
61014;BME280;46899;47.542;19.082;2023-02-04T08:41:56;100307.12;;;3.93;80.89
61014;BME280;46899;47.542;19.082;2023-02-04T08:44:58;100348.47;;;3.70;81.83
61014;BME280;46899;47.542;19.082;2023-02-04T08:48:01;100338.22;;;3.64;81.88
61014;BME280;46899;47.542;19.082;2023-02-04T08:51:04;100354.50;;;3.66;79.87
61014;BME280;46899;47.542;19.082;2023-02-04T08:54:07;100369.16;;;3.55;82.58
61014;BME280;46899;47.542;19.082;2023-02-04T08:57:09;100366.66;;;3.41;81.61
61014;BME280;46899;47.542;19.082;2023-02-04T09:00:12;100376.91;;;3.51;83.39
61014;BME280;46899;47.542;19.082;2023-02-04T09:03:14;100396.50;;;3.71;80.57
61014;BME280;46899;47.542;19.082;2023-02-04T09:06:17;100403.34;;;3.68;79.13
61014;BME280;46899;47.542;19.082;2023-02-04T09:09:20;100405.12;;;3.61;78.96
61014;BME280;46899;47.542;19.082;2023-02-04T09:12:25;100411.94;;;3.65;78.91
61014;BME280;46899;47.542;19.082;2023-02-04T09:15:27;100419.66;;;3.68;78.14
61014;BME280;46899;47.542;19.082;2023-02-04T09:18:30;100423.06;;;3.73;78.68
61014;BME280;46899;47.542;19.082;2023-02-04T09:21:33;100422.16;;;3.77;78.84
61014;BME280;46899;47.542;19.082;2023-02-04T09:24:36;100432.38;;;3.91;76.49
61014;BME280;46899;47.542;19.082;2023-02-04T09:27:39;100463.06;;;4.21;76.05
61014;BME280;46899;47.542;19.082;2023-02-04T09:30:43;100468.09;;;4.32;73.04
61014;BME280;46899;47.542;19.082;2023-02-04T09:33:47;100474.81;;;4.51;70.50
61014;BME280;46899;47.542;19.082;2023-02-04T09:36:49;100505.66;;;4.60;69.41
61014;BME280;46899;47.542;19.082;2023-02-04T09:39:52;100523.69;;;4.61;67.72
61014;BME280;46899;47.542;19.082;2023-02-04T09:42:56;100527.97;;;4.62;67.30
61014;BME280;46899;47.542;19.082;2023-02-04T09:46:00;100535.81;;;4.52;66.45
61014;BME280;46899;47.542;19.082;2023-02-04T09:49:03;100557.25;;;4.54;65.61
61014;BME280;46899;47.542;19.082;2023-02-04T09:52:09;100582.28;;;4.34;67.05
61014;BME280;46899;47.542;19.082;2023-02-04T09:55:13;100595.16;;;4.34;66.45
61014;BME280;46899;47.542;19.082;2023-02-04T09:58:17;100596.91;;;4.30;64.02
61014;BME280;46899;47.542;19.082;2023-02-04T10:01:20;100603.78;;;4.27;64.86
61014;BME280;46899;47.542;19.082;2023-02-04T10:04:23;100636.41;;;4.31;66.16
61014;BME280;46899;47.542;19.082;2023-02-04T10:07:26;100630.37;;;4.27;63.49
61014;BME280;46899;47.542;19.082;2023-02-04T10:10:30;100646.69;;;4.32;64.16
61014;BME280;46899;47.542;19.082;2023-02-04T10:13:37;100644.03;;;4.44;62.41
61014;BME280;46899;47.542;19.082;2023-02-04T10:16:46;100654.31;;;4.52;63.60
61014;BME280;46899;47.542;19.082;2023-02-04T10:19:52;100674.94;;;4.49;61.09
61014;BME280;46899;47.542;19.082;2023-02-04T10:22:55;100667.19;;;4.49;62.02
61014;BME280;46899;47.542;19.082;2023-02-04T10:25:57;100671.41;;;4.63;60.84
61014;BME280;46899;47.542;19.082;2023-02-04T10:29:04;100655.88;;;4.77;60.30
61014;BME280;46899;47.542;19.082;2023-02-04T10:35:30;100701.34;;;4.84;60.32
61014;BME280;46899;47.542;19.082;2023-02-04T10:38:33;100715.09;;;4.86;59.87
61014;BME280;46899;47.542;19.082;2023-02-04T10:41:36;100728.81;;;4.88;60.39
61014;BME280;46899;47.542;19.082;2023-02-04T10:44:45;100736.53;;;4.91;58.69
61014;BME280;46899;47.542;19.082;2023-02-04T10:47:51;100747.59;;;5.13;60.73
61014;BME280;46899;47.542;19.082;2023-02-04T10:50:54;100753.50;;;5.25;59.02
61014;BME280;46899;47.542;19.082;2023-02-04T10:53:57;100765.50;;;5.31;58.29
61014;BME280;46899;47.542;19.082;2023-02-04T10:57:20;100777.41;;;5.47;59.80
61014;BME280;46899;47.542;19.082;2023-02-04T11:00:24;100786.72;;;5.68;58.73
61014;BME280;46899;47.542;19.082;2023-02-04T11:03:27;100808.81;;;6.03;57.21
61014;BME280;46899;47.542;19.082;2023-02-04T11:06:32;100807.03;;;6.11;55.52
61014;BME280;46899;47.542;19.082;2023-02-04T11:09:35;100835.47;;;6.10;56.86
61014;BME280;46899;47.542;19.082;2023-02-04T11:12:40;100855.41;;;5.93;55.83
61014;BME280;46899;47.542;19.082;2023-02-04T11:15:49;100865.16;;;5.50;58.47
61014;BME280;46899;47.542;19.082;2023-02-04T11:22:07;100900.44;;;5.42;57.35
61014;BME280;46899;47.542;19.082;2023-02-04T11:29:06;100890.91;;;5.59;57.78
61014;BME280;46899;47.542;19.082;2023-02-04T11:35:31;100927.22;;;5.21;54.11
61014;BME280;46899;47.542;19.082;2023-02-04T11:38:34;100935.03;;;5.00;53.13
61014;BME280;46899;47.542;19.082;2023-02-04T11:42:00;100956.44;;;5.25;54.87
61014;BME280;46899;47.542;19.082;2023-02-04T11:45:12;100962.37;;;5.43;53.00
61014;BME280;46899;47.542;19.082;2023-02-04T11:48:16;100952.84;;;5.56;51.59
61014;BME280;46899;47.542;19.082;2023-02-04T11:51:20;100960.62;;;5.51;53.42
61014;BME280;46899;47.542;19.082;2023-02-04T11:54:24;100967.53;;;5.48;52.18
61014;BME280;46899;47.542;19.082;2023-02-04T11:57:27;100973.56;;;5.39;51.71
61014;BME280;46899;47.542;19.082;2023-02-04T12:00:30;101005.47;;;5.17;49.89
61014;BME280;46899;47.542;19.082;2023-02-04T12:03:34;100993.47;;;5.07;49.65
61014;BME280;46899;47.542;19.082;2023-02-04T12:06:55;100984.88;;;5.04;50.19
61014;BME280;46899;47.542;19.082;2023-02-04T12:10:08;100988.31;;;5.01;51.11
61014;BME280;46899;47.542;19.082;2023-02-04T12:13:12;100979.72;;;4.93;52.15
61014;BME280;46899;47.542;19.082;2023-02-04T12:16:17;101003.78;;;5.04;51.26
61014;BME280;46899;47.542;19.082;2023-02-04T12:19:20;101008.09;;;5.01;52.35
61014;BME280;46899;47.542;19.082;2023-02-04T12:22:23;101029.59;;;4.92;52.73
61014;BME280;46899;47.542;19.082;2023-02-04T12:25:25;101024.41;;;4.95;52.75
61014;BME280;46899;47.542;19.082;2023-02-04T12:28:28;101035.59;;;5.00;51.12
61014;BME280;46899;47.542;19.082;2023-02-04T12:31:31;101028.72;;;4.98;50.87
61014;BME280;46899;47.542;19.082;2023-02-04T12:34:34;101028.72;;;5.04;51.24
61014;BME280;46899;47.542;19.082;2023-02-04T12:37:37;101060.53;;;4.98;50.64
61014;BME280;46899;47.542;19.082;2023-02-04T12:40:40;101060.53;;;4.89;49.37
61014;BME280;46899;47.542;19.082;2023-02-04T12:43:42;101064.81;;;4.95;50.93
61014;BME280;46899;47.542;19.082;2023-02-04T12:46:45;101067.41;;;4.75;48.91
61014;BME280;46899;47.542;19.082;2023-02-04T12:49:47;101073.44;;;4.75;49.26
61014;BME280;46899;47.542;19.082;2023-02-04T12:52:54;101088.88;;;4.77;52.40
61014;BME280;46899;47.542;19.082;2023-02-04T12:55:57;101091.47;;;4.69;51.85
61014;BME280;46899;47.542;19.082;2023-02-04T12:59:00;101109.50;;;4.63;53.68
61014;BME280;46899;47.542;19.082;2023-02-04T13:02:02;101105.19;;;4.58;53.86
61014;BME280;46899;47.542;19.082;2023-02-04T13:05:05;101106.88;;;4.44;55.72
61014;BME280;46899;47.542;19.082;2023-02-04T13:08:08;101118.94;;;4.63;54.53
61014;BME280;46899;47.542;19.082;2023-02-04T13:11:11;101101.78;;;4.59;53.36
61014;BME280;46899;47.542;19.082;2023-02-04T13:14:13;101142.09;;;4.36;51.35
61014;BME280;46899;47.542;19.082;2023-02-04T13:17:16;101142.94;;;4.35;51.12
61014;BME280;46899;47.542;19.082;2023-02-04T13:20:18;101127.44;;;4.23;49.20
61014;BME280;46899;47.542;19.082;2023-02-04T13:23:21;101156.59;;;4.17;50.42
61014;BME280;46899;47.542;19.082;2023-02-04T13:26:24;101166.06;;;4.17;48.73
61014;BME280;46899;47.542;19.082;2023-02-04T13:29:26;101202.94;;;4.15;49.10
61014;BME280;46899;47.542;19.082;2023-02-04T13:32:29;101195.28;;;4.23;47.78
61014;BME280;46899;47.542;19.082;2023-02-04T13:35:32;101188.31;;;4.04;48.73
61014;BME280;46899;47.542;19.082;2023-02-04T13:38:35;101203.72;;;3.99;49.60
61014;BME280;46899;47.542;19.082;2023-02-04T13:41:38;101207.13;;;3.91;51.56
61014;BME280;46899;47.542;19.082;2023-02-04T13:44:40;101201.12;;;3.90;51.58
61014;BME280;46899;47.542;19.082;2023-02-04T13:47:43;101219.91;;;3.82;50.86
61014;BME280;46899;47.542;19.082;2023-02-04T13:50:46;101212.19;;;3.74;51.34
61014;BME280;46899;47.542;19.082;2023-02-04T13:53:48;101223.22;;;3.60;49.35
61014;BME280;46899;47.542;19.082;2023-02-04T13:56:51;101225.69;;;3.49;48.99
61014;BME280;46899;47.542;19.082;2023-02-04T13:59:54;101233.41;;;3.46;49.69
61014;BME280;46899;47.542;19.082;2023-02-04T14:02:56;101234.25;;;3.46;48.85
61014;BME280;46899;47.542;19.082;2023-02-04T14:05:59;101273.69;;;3.47;48.33
61014;BME280;46899;47.542;19.082;2023-02-04T14:09:02;101253.87;;;3.37;47.70
61014;BME280;46899;47.542;19.082;2023-02-04T14:12:05;101243.53;;;3.28;47.39
61014;BME280;46899;47.542;19.082;2023-02-04T14:15:08;101267.44;;;3.18;47.05
61014;BME280;46899;47.542;19.082;2023-02-04T14:18:11;101269.16;;;3.19;47.30
61014;BME280;46899;47.542;19.082;2023-02-04T14:21:13;101269.22;;;3.25;46.48
61014;BME280;46899;47.542;19.082;2023-02-04T14:24:16;101289.62;;;3.11;47.16
61014;BME280;46899;47.542;19.082;2023-02-04T14:27:19;101296.47;;;3.08;48.57
61014;BME280;46899;47.542;19.082;2023-02-04T14:30:26;101309.19;;;2.97;51.11
61014;BME280;46899;47.542;19.082;2023-02-04T14:33:29;101297.03;;;2.81;52.20
61014;BME280;46899;47.542;19.082;2023-02-04T14:36:33;101319.16;;;2.70;51.92
61014;BME280;46899;47.542;19.082;2023-02-04T14:39:35;101349.94;;;2.65;52.71
61014;BME280;46899;47.542;19.082;2023-02-04T14:42:38;101355.78;;;2.55;53.54
61014;BME280;46899;47.542;19.082;2023-02-04T14:45:40;101358.13;;;2.39;53.52
61014;BME280;46899;47.542;19.082;2023-02-04T14:48:43;101366.66;;;2.36;53.15
61014;BME280;46899;47.542;19.082;2023-02-04T14:51:46;101385.41;;;2.32;53.00
61014;BME280;46899;47.542;19.082;2023-02-04T14:54:49;101379.28;;;2.24;53.38
61014;BME280;46899;47.542;19.082;2023-02-04T14:57:52;101377.44;;;2.14;52.88
61014;BME280;46899;47.542;19.082;2023-02-04T15:00:55;101369.56;;;2.05;53.02
61014;BME280;46899;47.542;19.082;2023-02-04T15:03:57;101370.25;;;1.92;52.92
61014;BME280;46899;47.542;19.082;2023-02-04T15:07:00;101393.94;;;1.77;54.34
61014;BME280;46899;47.542;19.082;2023-02-04T15:10:03;101395.53;;;1.71;53.89
61014;BME280;46899;47.542;19.082;2023-02-04T15:13:06;101417.59;;;1.63;54.00
61014;BME280;46899;47.542;19.082;2023-02-04T15:16:09;101431.22;;;1.60;53.60
61014;BME280;46899;47.542;19.082;2023-02-04T15:19:14;101432.88;;;1.57;53.10
61014;BME280;46899;47.542;19.082;2023-02-04T15:22:17;101426.81;;;1.52;52.70
61014;BME280;46899;47.542;19.082;2023-02-04T15:25:20;101433.59;;;1.48;53.98
61014;BME280;46899;47.542;19.082;2023-02-04T15:28:23;101443.75;;;1.44;54.01
61014;BME280;46899;47.542;19.082;2023-02-04T15:31:25;101447.94;;;1.38;52.96
61014;BME280;46899;47.542;19.082;2023-02-04T15:34:28;101454.84;;;1.43;51.84
61014;BME280;46899;47.542;19.082;2023-02-04T15:37:31;101430.88;;;1.42;50.76
61014;BME280;46899;47.542;19.082;2023-02-04T15:40:34;101465.91;;;1.42;52.08
61014;BME280;46899;47.542;19.082;2023-02-04T15:43:37;101470.94;;;1.35;52.56
61014;BME280;46899;47.542;19.082;2023-02-04T15:46:39;101482.69;;;1.26;53.97
61014;BME280;46899;47.542;19.082;2023-02-04T15:49:42;101498.69;;;1.14;56.01
61014;BME280;46899;47.542;19.082;2023-02-04T15:52:45;101488.34;;;1.11;54.12
61014;BME280;46899;47.542;19.082;2023-02-04T15:55:47;101495.06;;;1.06;54.14
61014;BME280;46899;47.542;19.082;2023-02-04T15:58:50;101507.94;;;1.08;52.37
61014;BME280;46899;47.542;19.082;2023-02-04T16:01:53;101544.72;;;1.11;52.77
61014;BME280;46899;47.542;19.082;2023-02-04T16:04:56;101547.12;;;1.04;52.32
61014;BME280;46899;47.542;19.082;2023-02-04T16:08:00;101556.44;;;1.00;53.83
61014;BME280;46899;47.542;19.082;2023-02-04T16:11:03;101551.13;;;0.91;56.93